Archer, Florida
Current Conditions -  °F | °C
As of 12:53 PM on Wednesday 28 Jan 2015 (Local Time) from KGNV Reporting Station
Clear Clear  
Wind Chill: 53°   Ceiling: Unl
Heat Index: 53°   Visibility: 10mi
Dew Point: 30°   Wind: 8mph
Humidity: 41%   Direction: 60°ENE
Pressure: 30.23"   Gusts: NA
Location:  29.53°N, 82.52°W
Report Text: KGNV 281753Z 06007KT 10SM CLR 12/M01 A3023 RMK AO2 SLP236 T01171011 10122 20017 58008
Loading
Personal Weather Stations






























Interactive Weather Map New forecast layout! Learn more

10-Day Weather Forecast

Advertisements
Track Severe Weather on mobile